Whittemore, MI

12:07 PM EDT on September 04, 2015 (GMT -0400)
MesoWest | | Change Station
CLOSE
Current Station
Personal Weather Station
Location: Glennie, MI
Elevation: 830 ft
Nearby Weather Stations

Elev 830 ft 44.45 °N, 83.69 °W | Updated 37 minutes ago

Overcast
Overcast
69 °F
Feels Like 69 °F
N
4
Wind Variable Wind from East
Gusts 7.0 mph

Today
High -- | Low -- °F
--% Chance of Precip.
Yesterday
High -- | Low -- °F
Precip. -- in
7:01 AM 8:06 PM
Waning Gibbous, 58% visible
Pressure 30.07 in
Visibility 7.0 miles
Clouds Scattered Clouds 600 ft
Mostly Cloudy 3200 ft
Overcast 4200 ft
Dew Point 68 °F
Humidity 97%
Rainfall in
Snow Depth Not available.
UV 2 out of 12
Pollen 9.70 out of 12
Air Quality Not available.
Flu Activity Not available.
METAR KOSC 041553Z AUTO 12005KT 7SM SCT006 BKN032 OVC042 22/21 A3007 RMK AO2 T02150208
Pressure 30.07 in
Visibility 7.0 miles
Clouds Scattered Clouds 600 ft
Mostly Cloudy 3200 ft
Overcast 4200 ft
Dew Point 68 °F
Humidity 97%
Rainfall in
Snow Depth Not available.
UV 2 out of 12
Pollen 9.70 out of 12
Air Quality Not available.
Flu Activity Not available.
METAR KOSC 041553Z AUTO 12005KT 7SM SCT006 BKN032 OVC042 22/21 A3007 RMK AO2 T02150208
Nowcast | as of 12:00 PM EDT on September 4, 2015

At 1 PM...mostly cloudy. Chance of showers. Temperature 73. East winds 10 mph. At 3 PM...numerous showers and chance of thunderstorms. Temperature 74. East winds 11 mph. At 5 PM...numerous showers and chance of thunderstorms. Temperature 72. East winds 11 mph. At 7 PM...numerous showers and chance of thunderstorms. Temperature 69. East winds 8 mph.

×

10-Day Weather Forecast

×

Almanac

Astronomy

Sep. 04, 2015 Rise Set
Actual Time
Civil Twilight
Nautical Twilight
Astronomical Twilight
Moon
Length of Visible Light
Length of Day
Tomorrow will be .
, % of the Moon is Illuminated

Today's Extremes

State Highs State Lows

Community

WunderPhotos

Upload Photos

1,852,210 photos uploaded!

WunderBlogs® & News

Nearby

Air Quality

  Air Quality AQ Index Pollutant
Not available.

Snow Depth

Station Depth Elevation

Earthquake Activity

City Distance Mag. Time & Date
Minimum magnitude displayed is 2.5.

Coastal Water Temperatures

Place Temperature

Stations

Nearby Weather Stations

Station Location Temp. Windchill Dew Point Humidity Wind Precip. Elev Updated Type